createdAt,value
2018-06-28T00:00:40.740Z,17.50
2018-06-28T00:03:08.606Z,17.40
2018-06-28T00:05:36.427Z,17.40
2018-06-28T00:08:04.285Z,17.40
2018-06-28T00:10:32.126Z,17.40
2018-06-28T00:13:00.041Z,17.70
2018-06-28T00:15:27.918Z,17.70
2018-06-28T00:17:55.783Z,17.70
2018-06-28T00:20:23.723Z,17.70
2018-06-28T00:22:51.622Z,17.70
2018-06-28T00:25:19.518Z,17.60
2018-06-28T00:27:47.358Z,17.60
2018-06-28T00:30:15.285Z,17.60
2018-06-28T00:32:43.154Z,17.50
2018-06-28T00:35:10.967Z,17.50
2018-06-28T00:37:38.851Z,17.50
2018-06-28T00:40:06.702Z,17.50
2018-06-28T00:42:34.572Z,17.50
2018-06-28T00:45:02.716Z,17.50
2018-06-28T00:47:30.676Z,17.40
2018-06-28T00:49:58.486Z,17.30
2018-06-28T00:52:26.418Z,17.20
2018-06-28T00:54:54.345Z,17.10
2018-06-28T00:57:22.239Z,17.10
2018-06-28T00:59:50.150Z,17.00
2018-06-28T01:02:18.017Z,16.90
2018-06-28T01:04:45.848Z,16.80
2018-06-28T01:07:13.767Z,16.70
2018-06-28T01:09:41.647Z,16.70
2018-06-28T01:12:09.527Z,16.60
2018-06-28T01:14:37.489Z,16.50
2018-06-28T01:17:05.454Z,16.50
2018-06-28T01:19:33.424Z,16.40
2018-06-28T01:22:01.340Z,16.30
2018-06-28T01:24:29.250Z,16.20
2018-06-28T01:26:57.168Z,16.20
2018-06-28T01:29:25.084Z,16.10
2018-06-28T01:31:52.973Z,16.10
2018-06-28T01:34:20.834Z,16.00
2018-06-28T01:36:48.662Z,16.00
2018-06-28T01:39:16.464Z,15.90
2018-06-28T01:41:55.492Z,15.80
2018-06-28T01:46:51.111Z,15.70
2018-06-28T01:49:18.818Z,15.70
2018-06-28T01:51:46.649Z,15.70
2018-06-28T01:54:14.508Z,15.60
2018-06-28T01:56:42.329Z,15.70
2018-06-28T01:59:10.188Z,15.70
2018-06-28T02:01:38.106Z,15.70
2018-06-28T02:04:05.971Z,15.80
2018-06-28T02:06:34.193Z,15.90
2018-06-28T02:09:02.138Z,15.90
2018-06-28T02:11:30.008Z,15.90
2018-06-28T02:13:57.887Z,15.90
2018-06-28T02:16:25.759Z,15.90
2018-06-28T02:18:53.631Z,16.00
2018-06-28T02:21:21.452Z,16.00
2018-06-28T02:26:16.998Z,16.00
2018-06-28T02:28:44.924Z,16.10
2018-06-28T02:31:12.841Z,16.20
2018-06-28T02:33:40.715Z,16.20
2018-06-28T02:36:08.575Z,16.10
2018-06-28T02:38:36.441Z,16.10
2018-06-28T02:41:04.310Z,16.10
2018-06-28T02:43:32.127Z,16.00
2018-06-28T02:45:59.999Z,16.00
2018-06-28T02:48:27.843Z,16.00
2018-06-28T02:50:55.755Z,15.90
2018-06-28T02:53:23.637Z,15.90
2018-06-28T02:55:51.522Z,15.80
2018-06-28T02:58:19.347Z,15.70
2018-06-28T03:00:47.202Z,15.70
2018-06-28T03:03:15.122Z,15.60
2018-06-28T03:05:43.070Z,15.60
2018-06-28T03:08:10.891Z,15.60
2018-06-28T03:10:38.782Z,15.60
2018-06-28T03:13:06.585Z,15.50
2018-06-28T03:15:34.470Z,15.50
2018-06-28T03:18:02.280Z,15.50
2018-06-28T03:20:30.078Z,15.60
2018-06-28T03:22:58.061Z,15.60
2018-06-28T03:25:25.918Z,15.80
2018-06-28T03:27:53.769Z,15.80
2018-06-28T03:30:21.654Z,15.80
2018-06-28T03:32:49.524Z,15.80
2018-06-28T03:35:17.390Z,15.80
2018-06-28T03:37:45.305Z,15.80
2018-06-28T03:40:13.114Z,15.80
2018-06-28T03:42:40.919Z,15.80
2018-06-28T03:45:08.807Z,15.70
2018-06-28T03:47:36.578Z,15.70
2018-06-28T03:50:04.455Z,15.60
2018-06-28T03:52:32.371Z,15.60
2018-06-28T03:55:00.203Z,15.60
2018-06-28T03:57:28.121Z,15.60
2018-06-28T03:59:55.955Z,15.50
2018-06-28T04:02:23.770Z,15.50
2018-06-28T04:04:51.628Z,15.50
2018-06-28T04:07:19.515Z,15.50
2018-06-28T04:09:47.454Z,15.50
2018-06-28T04:14:43.042Z,15.50
2018-06-28T04:17:10.870Z,15.50
2018-06-28T04:19:38.762Z,15.50
2018-06-28T04:22:06.651Z,15.50
2018-06-28T04:24:34.672Z,15.50
2018-06-28T04:27:02.562Z,15.60
2018-06-28T04:29:30.387Z,15.60
2018-06-28T04:31:58.198Z,15.60
2018-06-28T04:34:26.066Z,15.60
2018-06-28T04:36:54.020Z,15.70
2018-06-28T04:39:21.809Z,15.90
2018-06-28T04:41:49.659Z,16.20
2018-06-28T04:44:17.494Z,16.20
2018-06-28T04:46:45.310Z,16.20
2018-06-28T04:49:13.145Z,16.20
2018-06-28T04:51:40.928Z,16.20
2018-06-28T04:54:08.798Z,16.30
2018-06-28T04:56:36.779Z,16.30
2018-06-28T04:59:04.973Z,16.20
2018-06-28T05:01:32.840Z,16.30
2018-06-28T05:04:00.718Z,16.30
2018-06-28T05:06:28.609Z,16.40
2018-06-28T05:08:56.423Z,16.40
2018-06-28T05:11:24.270Z,16.50
2018-06-28T05:13:52.165Z,16.60
2018-06-28T05:16:19.944Z,16.60
2018-06-28T05:18:47.842Z,16.70
2018-06-28T05:21:15.715Z,16.70
2018-06-28T05:23:43.595Z,16.70
2018-06-28T05:26:11.671Z,16.80
2018-06-28T05:28:39.576Z,16.90
2018-06-28T05:31:07.395Z,17.00
2018-06-28T05:33:35.268Z,17.00
2018-06-28T05:36:03.125Z,17.10
2018-06-28T05:38:30.940Z,17.20
2018-06-28T05:40:58.943Z,17.20
2018-06-28T05:43:26.758Z,17.20
2018-06-28T05:45:55.040Z,17.30
2018-06-28T05:48:23.092Z,17.40
2018-06-28T05:50:50.999Z,17.50
2018-06-28T05:53:18.972Z,17.60
2018-06-28T05:55:46.893Z,17.60
2018-06-28T05:58:14.714Z,17.70
2018-06-28T06:00:42.556Z,17.80
2018-06-28T06:03:10.367Z,17.80
2018-06-28T06:05:38.202Z,17.90
2018-06-28T06:08:06.053Z,17.90
2018-06-28T06:10:33.837Z,18.00
2018-06-28T06:13:01.723Z,18.00
2018-06-28T06:15:29.546Z,18.10
2018-06-28T06:17:57.461Z,18.20
2018-06-28T06:20:25.389Z,18.30
2018-06-28T06:22:53.097Z,18.40
2018-06-28T06:25:21.090Z,18.40
2018-06-28T06:27:48.869Z,18.50
2018-06-28T06:30:17.175Z,18.60
2018-06-28T06:32:45.051Z,18.80
2018-06-28T06:35:12.896Z,18.90
2018-06-28T06:37:40.978Z,19.00
2018-06-28T06:40:08.767Z,19.10
2018-06-28T06:42:36.565Z,19.20
2018-06-28T06:45:04.840Z,19.30
2018-06-28T06:47:38.811Z,19.40
2018-06-28T06:50:06.731Z,19.60
2018-06-28T06:52:34.631Z,19.80
2018-06-28T06:55:02.557Z,19.80
2018-06-28T06:57:30.471Z,19.90
2018-06-28T06:59:58.317Z,20.00
2018-06-28T07:02:26.115Z,20.10
2018-06-28T07:04:54.465Z,20.20
2018-06-28T07:07:22.399Z,20.30
2018-06-28T07:09:50.270Z,20.50
2018-06-28T07:12:18.151Z,20.60
2018-06-28T07:14:45.985Z,21.00
2018-06-28T07:17:13.854Z,21.90
2018-06-28T07:19:41.887Z,23.10
2018-06-28T07:22:09.742Z,23.90
2018-06-28T07:24:37.560Z,23.80
2018-06-28T07:27:05.484Z,23.50
2018-06-28T07:29:33.415Z,23.00
2018-06-28T07:32:01.312Z,22.90
2018-06-28T07:34:29.250Z,23.00
2018-06-28T07:36:57.101Z,23.70
2018-06-28T07:39:24.912Z,25.30
2018-06-28T07:41:52.781Z,27.30
2018-06-28T07:44:20.592Z,29.60
2018-06-28T07:46:48.479Z,31.50
2018-06-28T07:49:16.256Z,33.10
2018-06-28T07:51:44.335Z,34.10
2018-06-28T07:54:12.301Z,33.70
2018-06-28T07:56:40.182Z,34.30
2018-06-28T07:59:08.010Z,34.90
2018-06-28T08:01:35.766Z,35.30
2018-06-28T08:04:03.560Z,35.90
2018-06-28T08:06:31.427Z,36.70
2018-06-28T08:08:59.154Z,37.50
2018-06-28T08:11:26.898Z,37.80
2018-06-28T08:13:54.634Z,38.00
2018-06-28T08:16:22.443Z,37.90
2018-06-28T08:18:50.321Z,38.20
2018-06-28T08:21:18.103Z,37.40
2018-06-28T08:23:45.910Z,37.80
2018-06-28T08:26:13.683Z,37.50
2018-06-28T08:28:41.575Z,37.80
2018-06-28T08:31:09.395Z,38.10
2018-06-28T08:33:37.239Z,37.40
2018-06-28T08:36:05.107Z,37.50
2018-06-28T08:38:32.861Z,38.00
2018-06-28T08:41:00.622Z,38.10
2018-06-28T08:43:28.423Z,37.80
2018-06-28T08:45:56.272Z,37.20
2018-06-28T08:48:24.062Z,37.40
2018-06-28T08:53:26.306Z,36.50
2018-06-28T08:55:54.345Z,36.60
2018-06-28T08:58:22.529Z,36.10
2018-06-28T09:00:50.400Z,35.80
2018-06-28T09:03:18.162Z,36.50
2018-06-28T09:05:46.024Z,36.60
2018-06-28T09:08:13.878Z,37.60
2018-06-28T09:10:41.718Z,37.80
2018-06-28T09:13:09.642Z,38.50
2018-06-28T09:15:37.431Z,38.70
2018-06-28T09:18:05.206Z,38.00
2018-06-28T09:20:33.036Z,37.30
2018-06-28T09:23:00.900Z,37.80
2018-06-28T09:25:28.783Z,37.40
2018-06-28T09:27:56.684Z,37.40
2018-06-28T09:30:24.591Z,37.40
2018-06-28T09:32:52.370Z,36.50
2018-06-28T09:35:20.216Z,36.10
2018-06-28T09:37:48.087Z,35.50
2018-06-28T09:40:16.012Z,36.10
2018-06-28T09:42:43.897Z,36.50
2018-06-28T09:45:11.794Z,36.70
2018-06-28T09:47:39.722Z,36.90
2018-06-28T09:50:07.670Z,37.50
2018-06-28T09:52:35.520Z,37.30
2018-06-28T09:55:03.494Z,37.70
2018-06-28T09:57:31.503Z,37.40
2018-06-28T09:59:59.342Z,37.90
2018-06-28T10:02:27.235Z,37.90
2018-06-28T10:04:55.017Z,38.30
2018-06-28T10:07:22.814Z,38.90
2018-06-28T10:09:50.666Z,39.30
2018-06-28T10:12:18.526Z,39.20
2018-06-28T10:14:46.292Z,39.00
2018-06-28T10:17:14.010Z,39.40
2018-06-28T10:19:41.875Z,39.50
2018-06-28T10:22:09.739Z,39.80
2018-06-28T10:24:37.577Z,39.10
2018-06-28T10:27:05.522Z,38.90
2018-06-28T10:29:33.342Z,38.90
2018-06-28T10:32:01.154Z,39.30
2018-06-28T10:34:29.097Z,39.40
2018-06-28T10:36:56.964Z,37.60
2018-06-28T10:39:24.814Z,36.70
2018-06-28T10:41:52.756Z,37.20
2018-06-28T10:44:20.551Z,37.60
2018-06-28T10:46:52.660Z,37.50
2018-06-28T10:49:20.565Z,37.10
2018-06-28T10:51:48.387Z,36.20
2018-06-28T10:54:16.209Z,36.20
2018-06-28T10:56:43.971Z,36.20
2018-06-28T10:59:11.855Z,36.70
2018-06-28T11:01:39.732Z,37.10
2018-06-28T11:04:07.599Z,36.80
2018-06-28T11:06:35.430Z,36.20
2018-06-28T11:09:05.703Z,35.90
2018-06-28T11:11:33.601Z,36.40
2018-06-28T11:14:01.353Z,34.70
2018-06-28T11:16:29.323Z,34.90
2018-06-28T11:18:57.234Z,34.80
2018-06-28T11:21:25.103Z,35.50
2018-06-28T11:23:52.954Z,35.10
2018-06-28T11:26:20.897Z,34.10
2018-06-28T11:28:48.798Z,33.60
2018-06-28T11:31:16.573Z,34.40
2018-06-28T11:33:44.553Z,34.90
2018-06-28T11:36:12.453Z,34.70
2018-06-28T11:38:40.387Z,34.10
2018-06-28T11:41:08.140Z,34.20
2018-06-28T11:43:36.022Z,33.60
2018-06-28T11:46:03.883Z,33.40
2018-06-28T11:48:31.670Z,34.10
2018-06-28T11:50:59.267Z,33.50
2018-06-28T11:53:26.848Z,33.80
2018-06-28T11:55:54.477Z,34.70
2018-06-28T11:58:22.070Z,35.00
2018-06-28T12:00:49.678Z,35.10
2018-06-28T12:03:17.271Z,35.40
2018-06-28T12:05:44.839Z,35.30
2018-06-28T12:08:12.494Z,35.30
2018-06-28T12:10:40.116Z,34.90
2018-06-28T12:13:07.730Z,34.30
2018-06-28T12:15:35.281Z,33.70
2018-06-28T12:18:02.944Z,33.70
2018-06-28T12:20:30.848Z,33.80
2018-06-28T12:22:58.493Z,33.80
2018-06-28T12:25:26.117Z,33.60
2018-06-28T12:27:53.705Z,32.30
2018-06-28T12:30:21.362Z,32.10
2018-06-28T12:32:49.022Z,32.00
2018-06-28T12:35:16.616Z,32.30
2018-06-28T12:37:44.285Z,31.40
2018-06-28T12:40:11.893Z,31.40
2018-06-28T12:42:39.527Z,31.10
2018-06-28T12:45:07.160Z,31.00
2018-06-28T12:47:48.441Z,31.10
2018-06-28T12:50:16.086Z,30.90
2018-06-28T12:52:50.057Z,30.10
2018-06-28T12:55:18.706Z,30.20
2018-06-28T12:57:46.845Z,30.50
2018-06-28T13:00:15.451Z,30.30
2018-06-28T13:02:43.396Z,30.50
2018-06-28T13:05:12.013Z,30.70
2018-06-28T13:07:39.628Z,30.90
2018-06-28T13:10:08.821Z,31.00
2018-06-28T13:12:36.811Z,31.20
2018-06-28T13:15:05.084Z,31.10
2018-06-28T13:17:32.691Z,30.10
2018-06-28T13:20:00.411Z,29.80
2018-06-28T13:22:28.112Z,29.90
2018-06-28T13:24:55.704Z,29.50
2018-06-28T13:27:23.286Z,29.70
2018-06-28T13:29:50.857Z,29.80
2018-06-28T13:32:18.413Z,29.60
2018-06-28T13:34:46.177Z,29.80
2018-06-28T13:37:13.925Z,29.80
2018-06-28T13:39:41.529Z,29.50
2018-06-28T13:42:09.498Z,29.10
2018-06-28T13:44:36.927Z,29.00
2018-06-28T13:47:04.821Z,29.10
2018-06-28T13:49:32.481Z,28.80
2018-06-28T13:52:00.221Z,28.70
2018-06-28T13:54:27.980Z,28.80
2018-06-28T13:56:55.667Z,29.00
2018-06-28T13:59:23.299Z,29.30
2018-06-28T14:01:51.134Z,29.50
2018-06-28T14:04:18.766Z,29.70
2018-06-28T14:06:46.329Z,29.40
2018-06-28T14:09:13.945Z,29.20
2018-06-28T14:11:41.813Z,29.00
2018-06-28T14:14:09.446Z,28.90
2018-06-28T14:16:37.144Z,29.20
2018-06-28T14:19:04.778Z,29.60
2018-06-28T14:21:32.394Z,29.90
2018-06-28T14:24:00.000Z,29.40
2018-06-28T14:26:27.634Z,29.10
2018-06-28T14:28:55.238Z,28.80
2018-06-28T14:31:22.864Z,28.50
2018-06-28T14:33:50.481Z,28.40
2018-06-28T14:36:18.113Z,28.60
2018-06-28T14:38:45.794Z,28.80
2018-06-28T14:41:19.926Z,29.00
2018-06-28T14:43:47.486Z,29.10
2018-06-28T14:46:15.097Z,29.10
2018-06-28T14:48:42.645Z,28.90
2018-06-28T14:51:10.267Z,29.10
2018-06-28T14:53:37.921Z,29.10
2018-06-28T14:56:05.617Z,28.50
2018-06-28T14:58:33.207Z,28.20
2018-06-28T15:01:00.825Z,27.90
2018-06-28T15:03:28.661Z,27.80
2018-06-28T15:05:56.283Z,27.80
2018-06-28T15:08:23.907Z,28.00
2018-06-28T15:10:51.529Z,28.30
2018-06-28T15:13:19.133Z,28.60
2018-06-28T15:15:46.716Z,28.70
2018-06-28T15:18:14.293Z,28.60
2018-06-28T15:20:41.881Z,28.50
2018-06-28T15:23:09.483Z,28.10
2018-06-28T15:25:37.134Z,27.90
2018-06-28T15:28:04.781Z,27.70
2018-06-28T15:30:32.422Z,27.70
2018-06-28T15:33:00.178Z,27.80
2018-06-28T15:35:27.897Z,28.00
2018-06-28T15:37:55.614Z,28.30
2018-06-28T15:40:23.262Z,28.30
2018-06-28T15:42:50.872Z,28.20
2018-06-28T15:45:18.503Z,28.10
2018-06-28T15:47:46.161Z,27.90
2018-06-28T15:50:13.776Z,27.80
2018-06-28T15:55:08.894Z,27.80
2018-06-28T15:57:36.569Z,27.90
2018-06-28T16:00:05.089Z,28.20
2018-06-28T16:02:32.735Z,28.40
2018-06-28T16:05:00.429Z,28.60
2018-06-28T16:07:28.083Z,28.50
2018-06-28T16:09:55.729Z,28.40
2018-06-28T16:12:23.383Z,28.20
2018-06-28T16:14:51.065Z,28.20
2018-06-28T16:17:18.658Z,28.10
2018-06-28T16:19:46.259Z,28.00
2018-06-28T16:22:13.885Z,27.90
2018-06-28T16:24:41.490Z,27.50
2018-06-28T16:27:09.095Z,27.10
2018-06-28T16:29:36.698Z,26.80
2018-06-28T16:32:05.137Z,26.70
2018-06-28T16:34:32.748Z,26.70
2018-06-28T16:37:00.443Z,26.80
2018-06-28T16:39:28.129Z,26.80
2018-06-28T16:41:55.929Z,26.80
2018-06-28T16:44:23.581Z,26.70
2018-06-28T16:46:51.246Z,26.70
2018-06-28T16:49:18.854Z,26.60
2018-06-28T16:51:46.469Z,26.60
2018-06-28T16:54:14.084Z,26.70
2018-06-28T16:56:41.756Z,26.80
2018-06-28T16:59:09.386Z,26.90
2018-06-28T17:01:37.128Z,27.10
2018-06-28T17:04:04.968Z,27.10
2018-06-28T17:06:32.740Z,27.10
2018-06-28T17:09:00.390Z,27.10
2018-06-28T17:11:28.066Z,27.20
2018-06-28T17:13:55.689Z,27.20
2018-06-28T17:16:23.285Z,27.00
2018-06-28T17:18:51.790Z,27.00
2018-06-28T17:21:19.401Z,26.90
2018-06-28T17:23:46.994Z,26.70
2018-06-28T17:26:14.629Z,26.50
2018-06-28T17:28:42.185Z,26.40
2018-06-28T17:31:09.805Z,26.40
2018-06-28T17:33:37.381Z,26.30
2018-06-28T17:36:04.993Z,26.30
2018-06-28T17:38:32.580Z,26.30
2018-06-28T17:41:00.294Z,26.40
2018-06-28T17:43:27.922Z,26.50
2018-06-28T17:45:55.627Z,26.50
2018-06-28T17:48:23.253Z,26.40
2018-06-28T17:50:50.869Z,26.20
2018-06-28T17:53:18.479Z,26.20
2018-06-28T17:55:46.085Z,26.20
2018-06-28T17:58:13.742Z,26.20
2018-06-28T18:00:41.353Z,26.10
2018-06-28T18:03:08.975Z,26.10
2018-06-28T18:05:36.589Z,26.10
2018-06-28T18:08:04.186Z,26.00
2018-06-28T18:10:31.802Z,25.90
2018-06-28T18:12:59.368Z,25.90
2018-06-28T18:15:26.970Z,25.90
2018-06-28T18:17:54.547Z,25.90
2018-06-28T18:20:22.168Z,25.90
2018-06-28T18:22:49.805Z,25.90
2018-06-28T18:25:17.423Z,25.80
2018-06-28T18:27:45.023Z,25.80
2018-06-28T18:30:12.650Z,25.70
2018-06-28T18:32:40.320Z,25.60
2018-06-28T18:35:08.005Z,25.50
2018-06-28T18:37:35.616Z,25.50
2018-06-28T18:40:03.917Z,25.40
2018-06-28T18:42:38.146Z,25.30
2018-06-28T18:45:05.910Z,25.30
2018-06-28T18:47:33.529Z,25.20
2018-06-28T18:50:01.150Z,25.20
2018-06-28T18:52:28.738Z,25.10
2018-06-28T18:54:56.520Z,25.10
2018-06-28T18:57:24.203Z,25.00
2018-06-28T18:59:51.815Z,24.90
2018-06-28T19:02:19.426Z,24.90
2018-06-28T19:04:47.280Z,24.80
2018-06-28T19:07:14.903Z,24.70
2018-06-28T19:09:48.522Z,24.70
2018-06-28T19:12:16.165Z,24.70
2018-06-28T19:14:49.488Z,24.60
2018-06-28T19:17:17.130Z,24.60
2018-06-28T19:19:44.760Z,24.50
2018-06-28T19:22:18.106Z,24.40
2018-06-28T19:24:45.767Z,24.30
2018-06-28T19:27:13.393Z,24.20
2018-06-28T19:29:46.838Z,24.10
2018-06-28T19:32:20.049Z,24.00
2018-06-28T19:34:47.977Z,23.90
2018-06-28T19:37:21.208Z,23.80
2018-06-28T19:39:54.403Z,23.70
2018-06-28T19:42:27.700Z,23.60
2018-06-28T19:44:55.480Z,23.50
2018-06-28T19:47:23.136Z,23.50
2018-06-28T19:49:56.455Z,23.40
2018-06-28T19:52:29.742Z,23.40
2018-06-28T19:54:57.453Z,23.30
2018-06-28T19:57:32.847Z,23.20
2018-06-28T20:00:00.657Z,23.10
2018-06-28T20:02:33.850Z,23.10
2018-06-28T20:05:01.705Z,23.00
2018-06-28T20:07:29.157Z,23.00
2018-06-28T20:09:56.957Z,22.90
2018-06-28T20:12:30.179Z,22.80
2018-06-28T20:15:03.317Z,22.70
2018-06-28T20:17:36.528Z,22.60
2018-06-28T20:20:09.960Z,22.50
2018-06-28T20:22:37.743Z,22.50
2018-06-28T20:25:05.410Z,22.40
2018-06-28T20:28:37.249Z,22.40
2018-06-28T20:31:10.533Z,22.40
2018-06-28T20:33:43.844Z,22.40
2018-06-28T20:36:11.516Z,22.30
2018-06-28T20:38:39.209Z,22.30
2018-06-28T20:41:06.887Z,22.30
2018-06-28T20:43:34.574Z,22.20
2018-06-28T20:46:02.321Z,22.20
2018-06-28T20:48:29.997Z,22.10
2018-06-28T20:50:57.705Z,22.10
2018-06-28T20:53:25.349Z,22.10
2018-06-28T20:55:53.049Z,22.10
2018-06-28T20:58:20.733Z,22.10
2018-06-28T21:00:48.510Z,22.00
2018-06-28T21:03:16.135Z,22.00
2018-06-28T21:05:43.762Z,22.00
2018-06-28T21:08:11.410Z,21.90
2018-06-28T21:10:39.037Z,21.80
2018-06-28T21:13:06.686Z,21.80
2018-06-28T21:15:34.330Z,21.70
2018-06-28T21:18:02.000Z,21.60
2018-06-28T21:20:29.682Z,21.60
2018-06-28T21:22:57.401Z,21.60
2018-06-28T21:25:25.099Z,21.50
2018-06-28T21:27:52.766Z,21.40
2018-06-28T21:30:24.271Z,21.40
2018-06-28T21:32:51.889Z,21.30
2018-06-28T21:35:19.555Z,21.30
2018-06-28T21:37:47.134Z,21.20
2018-06-28T21:40:14.834Z,21.20
2018-06-28T21:42:42.455Z,21.10
2018-06-28T21:45:10.158Z,21.00
2018-06-28T21:47:37.759Z,21.00
2018-06-28T21:50:05.428Z,20.80
2018-06-28T21:52:33.005Z,20.80
2018-06-28T21:55:00.583Z,20.80
2018-06-28T21:57:28.224Z,20.70
2018-06-28T21:59:55.848Z,20.70
2018-06-28T22:02:23.518Z,20.60
2018-06-28T22:04:51.157Z,20.60
2018-06-28T22:07:18.765Z,20.50
2018-06-28T22:09:46.307Z,20.50
2018-06-28T22:12:13.910Z,20.50
2018-06-28T22:14:41.526Z,20.50
2018-06-28T22:17:09.142Z,20.40
2018-06-28T22:19:36.756Z,20.30
2018-06-28T22:22:04.358Z,20.30
2018-06-28T22:24:38.694Z,20.30
2018-06-28T22:27:06.282Z,20.20
2018-06-28T22:29:33.909Z,20.20
2018-06-28T22:34:28.977Z,20.10
2018-06-28T22:36:56.602Z,20.00
2018-06-28T22:39:24.204Z,19.90
2018-06-28T22:41:51.761Z,19.90
2018-06-28T22:44:19.328Z,19.80
2018-06-28T22:46:46.942Z,19.80
2018-06-28T22:49:14.570Z,19.70
2018-06-28T22:51:42.140Z,19.70
2018-06-28T22:54:09.729Z,19.60
2018-06-28T22:56:37.311Z,19.60
2018-06-28T22:59:04.871Z,19.60
2018-06-28T23:01:32.542Z,19.50
2018-06-28T23:04:00.154Z,19.50
2018-06-28T23:06:27.793Z,19.40
2018-06-28T23:08:55.358Z,19.30
2018-06-28T23:11:23.052Z,19.30
2018-06-28T23:13:50.849Z,19.20
2018-06-28T23:16:18.431Z,19.20
2018-06-28T23:18:46.029Z,19.20
2018-06-28T23:21:13.611Z,19.20
2018-06-28T23:23:41.311Z,19.20
2018-06-28T23:26:08.761Z,19.10
2018-06-28T23:28:36.380Z,19.10
2018-06-28T23:31:03.974Z,19.00
2018-06-28T23:33:31.533Z,19.00
2018-06-28T23:35:59.126Z,18.90
2018-06-28T23:40:54.185Z,18.80
2018-06-28T23:43:21.746Z,18.80
2018-06-28T23:45:49.332Z,18.70
2018-06-28T23:48:16.893Z,18.70
2018-06-28T23:50:44.477Z,18.70
2018-06-28T23:53:12.074Z,18.60
2018-06-28T23:55:39.662Z,18.60
2018-06-28T23:58:07.243Z,18.50
